sensor_id;sensor_type;location;lat;lon;timestamp;temperature;humidity
15355;DHT22;7777;52.254;9.618;2024-01-07T00:01:36;1.50;99.90
15355;DHT22;7777;52.254;9.618;2024-01-07T00:04:02;1.50;99.90
15355;DHT22;7777;52.254;9.618;2024-01-07T00:06:28;1.50;99.90
15355;DHT22;7777;52.254;9.618;2024-01-07T00:08:54;1.50;99.90
15355;DHT22;7777;52.254;9.618;2024-01-07T00:11:20;1.50;99.90
15355;DHT22;7777;52.254;9.618;2024-01-07T00:13:46;1.50;99.90
15355;DHT22;7777;52.254;9.618;2024-01-07T00:16:12;1.50;99.90
15355;DHT22;7777;52.254;9.618;2024-01-07T00:18:37;1.50;99.90
15355;DHT22;7777;52.254;9.618;2024-01-07T00:21:04;1.50;99.90
15355;DHT22;7777;52.254;9.618;2024-01-07T00:23:30;1.50;99.90
15355;DHT22;7777;52.254;9.618;2024-01-07T00:25:55;1.50;99.90
15355;DHT22;7777;52.254;9.618;2024-01-07T00:28:21;1.50;99.90
15355;DHT22;7777;52.254;9.618;2024-01-07T00:30:47;1.50;99.90
15355;DHT22;7777;52.254;9.618;2024-01-07T00:33:13;1.50;99.90
15355;DHT22;7777;52.254;9.618;2024-01-07T00:35:38;1.40;99.90
15355;DHT22;7777;52.254;9.618;2024-01-07T00:38:04;1.40;99.90
15355;DHT22;7777;52.254;9.618;2024-01-07T00:40:30;1.40;99.90
15355;DHT22;7777;52.254;9.618;2024-01-07T00:42:56;1.40;99.90
15355;DHT22;7777;52.254;9.618;2024-01-07T00:45:22;1.40;99.90
15355;DHT22;7777;52.254;9.618;2024-01-07T00:47:48;1.40;99.90
15355;DHT22;7777;52.254;9.618;2024-01-07T00:50:13;1.40;99.90
15355;DHT22;7777;52.254;9.618;2024-01-07T00:52:39;1.40;99.90
15355;DHT22;7777;52.254;9.618;2024-01-07T00:55:08;1.30;99.90
15355;DHT22;7777;52.254;9.618;2024-01-07T00:57:33;1.30;99.90
15355;DHT22;7777;52.254;9.618;2024-01-07T01:00:06;1.30;99.90
15355;DHT22;7777;52.254;9.618;2024-01-07T01:02:33;1.30;99.90
15355;DHT22;7777;52.254;9.618;2024-01-07T01:05:01;1.30;99.90
15355;DHT22;7777;52.254;9.618;2024-01-07T01:07:27;1.30;99.90
15355;DHT22;7777;52.254;9.618;2024-01-07T01:09:53;1.30;99.90
15355;DHT22;7777;52.254;9.618;2024-01-07T01:12:19;1.30;99.90
15355;DHT22;7777;52.254;9.618;2024-01-07T01:14:45;1.30;99.90
15355;DHT22;7777;52.254;9.618;2024-01-07T01:17:10;1.30;99.90
15355;DHT22;7777;52.254;9.618;2024-01-07T01:19:36;1.30;99.90
15355;DHT22;7777;52.254;9.618;2024-01-07T01:22:02;1.30;99.90
15355;DHT22;7777;52.254;9.618;2024-01-07T01:24:27;1.30;99.90
15355;DHT22;7777;52.254;9.618;2024-01-07T01:26:53;1.30;99.90
15355;DHT22;7777;52.254;9.618;2024-01-07T01:29:19;1.30;99.90
15355;DHT22;7777;52.254;9.618;2024-01-07T01:31:45;1.30;99.90
15355;DHT22;7777;52.254;9.618;2024-01-07T01:34:11;1.30;99.90
15355;DHT22;7777;52.254;9.618;2024-01-07T01:36:37;1.30;99.90
15355;DHT22;7777;52.254;9.618;2024-01-07T01:39:02;1.30;99.90
15355;DHT22;7777;52.254;9.618;2024-01-07T01:41:28;1.30;99.90
15355;DHT22;7777;52.254;9.618;2024-01-07T01:43:59;1.30;99.90
15355;DHT22;7777;52.254;9.618;2024-01-07T01:46:25;1.20;99.90
15355;DHT22;7777;52.254;9.618;2024-01-07T01:48:51;1.20;99.90
15355;DHT22;7777;52.254;9.618;2024-01-07T01:51:17;1.20;99.90
15355;DHT22;7777;52.254;9.618;2024-01-07T01:53:45;1.20;99.90
15355;DHT22;7777;52.254;9.618;2024-01-07T01:56:11;1.20;99.90
15355;DHT22;7777;52.254;9.618;2024-01-07T01:58:37;1.20;99.90
15355;DHT22;7777;52.254;9.618;2024-01-07T02:01:04;1.20;99.90
15355;DHT22;7777;52.254;9.618;2024-01-07T02:03:29;1.20;99.90
15355;DHT22;7777;52.254;9.618;2024-01-07T02:05:56;1.20;99.90
15355;DHT22;7777;52.254;9.618;2024-01-07T02:08:23;1.20;99.90
15355;DHT22;7777;52.254;9.618;2024-01-07T02:10:50;1.20;99.90
15355;DHT22;7777;52.254;9.618;2024-01-07T02:13:16;1.20;99.90
15355;DHT22;7777;52.254;9.618;2024-01-07T02:15:43;1.10;99.90
15355;DHT22;7777;52.254;9.618;2024-01-07T02:18:09;1.10;99.90
15355;DHT22;7777;52.254;9.618;2024-01-07T02:20:35;1.10;99.90
15355;DHT22;7777;52.254;9.618;2024-01-07T02:23:04;1.10;99.90
15355;DHT22;7777;52.254;9.618;2024-01-07T02:25:35;1.10;99.90
15355;DHT22;7777;52.254;9.618;2024-01-07T02:28:01;1.10;99.90
15355;DHT22;7777;52.254;9.618;2024-01-07T02:30:27;1.10;99.90
15355;DHT22;7777;52.254;9.618;2024-01-07T02:32:53;1.00;99.90
15355;DHT22;7777;52.254;9.618;2024-01-07T02:35:19;1.00;99.90
15355;DHT22;7777;52.254;9.618;2024-01-07T02:37:44;1.00;99.90
15355;DHT22;7777;52.254;9.618;2024-01-07T02:40:10;1.00;99.90
15355;DHT22;7777;52.254;9.618;2024-01-07T02:42:37;1.00;99.90
15355;DHT22;7777;52.254;9.618;2024-01-07T02:45:05;0.90;99.90
15355;DHT22;7777;52.254;9.618;2024-01-07T02:47:32;0.90;99.90
15355;DHT22;7777;52.254;9.618;2024-01-07T02:49:57;0.90;99.90
15355;DHT22;7777;52.254;9.618;2024-01-07T02:52:23;0.90;99.90
15355;DHT22;7777;52.254;9.618;2024-01-07T02:54:49;0.90;99.90
15355;DHT22;7777;52.254;9.618;2024-01-07T02:57:15;0.90;99.90
15355;DHT22;7777;52.254;9.618;2024-01-07T02:59:41;0.90;99.90
15355;DHT22;7777;52.254;9.618;2024-01-07T03:02:07;0.90;99.90
15355;DHT22;7777;52.254;9.618;2024-01-07T03:04:33;0.90;99.90
15355;DHT22;7777;52.254;9.618;2024-01-07T03:06:59;0.90;99.90
15355;DHT22;7777;52.254;9.618;2024-01-07T03:09:25;0.90;99.90
15355;DHT22;7777;52.254;9.618;2024-01-07T03:11:51;0.90;99.90
15355;DHT22;7777;52.254;9.618;2024-01-07T03:14:16;0.90;99.90
15355;DHT22;7777;52.254;9.618;2024-01-07T03:16:45;0.90;99.90
15355;DHT22;7777;52.254;9.618;2024-01-07T03:19:11;0.80;99.90
15355;DHT22;7777;52.254;9.618;2024-01-07T03:21:37;0.80;99.90
15355;DHT22;7777;52.254;9.618;2024-01-07T03:24:03;0.80;99.90
15355;DHT22;7777;52.254;9.618;2024-01-07T03:26:30;0.80;99.90
15355;DHT22;7777;52.254;9.618;2024-01-07T03:28:59;0.80;99.90
15355;DHT22;7777;52.254;9.618;2024-01-07T03:31:26;0.80;99.90
15355;DHT22;7777;52.254;9.618;2024-01-07T03:33:52;0.80;99.90
15355;DHT22;7777;52.254;9.618;2024-01-07T03:36:17;0.80;99.90
15355;DHT22;7777;52.254;9.618;2024-01-07T03:38:43;0.70;99.90
15355;DHT22;7777;52.254;9.618;2024-01-07T03:41:09;0.70;99.90
15355;DHT22;7777;52.254;9.618;2024-01-07T03:43:41;0.70;99.90
15355;DHT22;7777;52.254;9.618;2024-01-07T03:46:07;0.70;99.90
15355;DHT22;7777;52.254;9.618;2024-01-07T03:48:33;0.70;99.90
15355;DHT22;7777;52.254;9.618;2024-01-07T03:50:58;0.60;99.90
15355;DHT22;7777;52.254;9.618;2024-01-07T03:53:24;0.60;99.90
15355;DHT22;7777;52.254;9.618;2024-01-07T03:55:50;0.60;99.90
15355;DHT22;7777;52.254;9.618;2024-01-07T03:58:16;0.60;99.90
15355;DHT22;7777;52.254;9.618;2024-01-07T04:00:41;0.60;99.90
15355;DHT22;7777;52.254;9.618;2024-01-07T04:03:07;0.60;99.90
15355;DHT22;7777;52.254;9.618;2024-01-07T04:05:33;0.60;99.90
15355;DHT22;7777;52.254;9.618;2024-01-07T04:08:02;0.60;99.90
15355;DHT22;7777;52.254;9.618;2024-01-07T04:10:28;0.50;99.90
15355;DHT22;7777;52.254;9.618;2024-01-07T04:12:53;0.50;99.90
15355;DHT22;7777;52.254;9.618;2024-01-07T04:15:20;0.50;99.90
15355;DHT22;7777;52.254;9.618;2024-01-07T04:17:45;0.50;99.90
15355;DHT22;7777;52.254;9.618;2024-01-07T04:20:15;0.50;99.90
15355;DHT22;7777;52.254;9.618;2024-01-07T04:22:41;0.50;99.90
15355;DHT22;7777;52.254;9.618;2024-01-07T04:25:07;0.40;99.90
15355;DHT22;7777;52.254;9.618;2024-01-07T04:27:36;0.40;99.90
15355;DHT22;7777;52.254;9.618;2024-01-07T04:30:04;0.40;99.90
15355;DHT22;7777;52.254;9.618;2024-01-07T04:32:31;0.50;99.90
15355;DHT22;7777;52.254;9.618;2024-01-07T04:34:57;0.50;99.90
15355;DHT22;7777;52.254;9.618;2024-01-07T04:37:24;0.50;99.90
15355;DHT22;7777;52.254;9.618;2024-01-07T04:39:50;0.50;99.90
15355;DHT22;7777;52.254;9.618;2024-01-07T04:42:17;0.50;99.90
15355;DHT22;7777;52.254;9.618;2024-01-07T04:44:43;0.40;99.90
15355;DHT22;7777;52.254;9.618;2024-01-07T04:47:28;0.40;99.90
15355;DHT22;7777;52.254;9.618;2024-01-07T04:49:55;0.40;99.90
15355;DHT22;7777;52.254;9.618;2024-01-07T04:52:22;0.40;99.90
15355;DHT22;7777;52.254;9.618;2024-01-07T04:54:53;0.40;99.90
15355;DHT22;7777;52.254;9.618;2024-01-07T04:57:20;0.40;99.90
15355;DHT22;7777;52.254;9.618;2024-01-07T04:59:47;0.30;99.90
15355;DHT22;7777;52.254;9.618;2024-01-07T05:02:14;0.30;99.90
15355;DHT22;7777;52.254;9.618;2024-01-07T05:04:41;0.30;99.90
15355;DHT22;7777;52.254;9.618;2024-01-07T05:07:07;0.30;99.90
15355;DHT22;7777;52.254;9.618;2024-01-07T05:09:33;0.30;99.90
15355;DHT22;7777;52.254;9.618;2024-01-07T05:12:00;0.30;99.90
15355;DHT22;7777;52.254;9.618;2024-01-07T05:14:26;0.30;99.90
15355;DHT22;7777;52.254;9.618;2024-01-07T05:16:53;0.40;99.90
15355;DHT22;7777;52.254;9.618;2024-01-07T05:19:20;0.40;99.90
15355;DHT22;7777;52.254;9.618;2024-01-07T05:21:45;0.40;99.90
15355;DHT22;7777;52.254;9.618;2024-01-07T05:24:11;0.40;99.90
15355;DHT22;7777;52.254;9.618;2024-01-07T05:26:42;0.40;99.90
15355;DHT22;7777;52.254;9.618;2024-01-07T05:29:09;0.40;99.90
15355;DHT22;7777;52.254;9.618;2024-01-07T05:31:34;0.30;99.90
15355;DHT22;7777;52.254;9.618;2024-01-07T05:34:00;0.30;99.90
15355;DHT22;7777;52.254;9.618;2024-01-07T05:36:26;0.30;99.90
15355;DHT22;7777;52.254;9.618;2024-01-07T05:38:51;0.30;99.90
15355;DHT22;7777;52.254;9.618;2024-01-07T05:41:17;0.30;99.90
15355;DHT22;7777;52.254;9.618;2024-01-07T05:43:43;0.30;99.90
15355;DHT22;7777;52.254;9.618;2024-01-07T05:46:09;0.30;99.90
15355;DHT22;7777;52.254;9.618;2024-01-07T05:48:48;0.30;99.90
15355;DHT22;7777;52.254;9.618;2024-01-07T05:51:15;0.30;99.90
15355;DHT22;7777;52.254;9.618;2024-01-07T05:53:42;0.30;99.90
15355;DHT22;7777;52.254;9.618;2024-01-07T05:56:08;0.30;99.90
15355;DHT22;7777;52.254;9.618;2024-01-07T05:58:34;0.30;99.90
15355;DHT22;7777;52.254;9.618;2024-01-07T06:01:00;0.30;99.90
15355;DHT22;7777;52.254;9.618;2024-01-07T06:03:26;0.20;99.90
15355;DHT22;7777;52.254;9.618;2024-01-07T06:05:52;0.30;99.90
15355;DHT22;7777;52.254;9.618;2024-01-07T06:08:18;0.20;99.90
15355;DHT22;7777;52.254;9.618;2024-01-07T06:10:44;0.20;99.90
15355;DHT22;7777;52.254;9.618;2024-01-07T06:13:10;0.20;99.90
15355;DHT22;7777;52.254;9.618;2024-01-07T06:15:35;0.20;99.90
15355;DHT22;7777;52.254;9.618;2024-01-07T06:18:02;0.20;99.90
15355;DHT22;7777;52.254;9.618;2024-01-07T06:20:29;0.20;99.90
15355;DHT22;7777;52.254;9.618;2024-01-07T06:22:55;0.20;99.90
15355;DHT22;7777;52.254;9.618;2024-01-07T06:25:21;0.20;99.90
15355;DHT22;7777;52.254;9.618;2024-01-07T06:27:46;0.20;99.90
15355;DHT22;7777;52.254;9.618;2024-01-07T06:30:12;0.20;99.90
15355;DHT22;7777;52.254;9.618;2024-01-07T06:32:39;0.10;99.90
15355;DHT22;7777;52.254;9.618;2024-01-07T06:35:06;0.10;99.90
15355;DHT22;7777;52.254;9.618;2024-01-07T06:37:32;0.10;99.90
15355;DHT22;7777;52.254;9.618;2024-01-07T06:39:58;0.10;99.90
15355;DHT22;7777;52.254;9.618;2024-01-07T06:42:24;0.00;99.90
15355;DHT22;7777;52.254;9.618;2024-01-07T06:44:50;0.00;99.90
15355;DHT22;7777;52.254;9.618;2024-01-07T06:47:16;0.00;99.90
15355;DHT22;7777;52.254;9.618;2024-01-07T06:49:43;0.00;99.90
15355;DHT22;7777;52.254;9.618;2024-01-07T06:52:09;0.00;99.90
15355;DHT22;7777;52.254;9.618;2024-01-07T06:54:35;0.00;99.90
15355;DHT22;7777;52.254;9.618;2024-01-07T06:57:02;0.00;99.90
15355;DHT22;7777;52.254;9.618;2024-01-07T06:59:27;0.00;99.90
15355;DHT22;7777;52.254;9.618;2024-01-07T07:01:53;0.00;99.90
15355;DHT22;7777;52.254;9.618;2024-01-07T07:04:21;0.00;99.90
15355;DHT22;7777;52.254;9.618;2024-01-07T07:06:47;0.00;99.90
15355;DHT22;7777;52.254;9.618;2024-01-07T07:09:13;0.00;99.90
15355;DHT22;7777;52.254;9.618;2024-01-07T07:11:40;0.00;99.90
15355;DHT22;7777;52.254;9.618;2024-01-07T07:14:06;0.00;99.90
15355;DHT22;7777;52.254;9.618;2024-01-07T07:16:32;0.00;99.90
15355;DHT22;7777;52.254;9.618;2024-01-07T07:18:57;-0.10;99.90
15355;DHT22;7777;52.254;9.618;2024-01-07T07:21:23;-0.10;99.90
15355;DHT22;7777;52.254;9.618;2024-01-07T07:23:49;-0.10;99.90
15355;DHT22;7777;52.254;9.618;2024-01-07T07:26:15;-0.10;99.90
15355;DHT22;7777;52.254;9.618;2024-01-07T07:28:41;-0.10;99.90
15355;DHT22;7777;52.254;9.618;2024-01-07T07:31:07;-0.10;99.90
15355;DHT22;7777;52.254;9.618;2024-01-07T07:33:32;-0.10;99.90
15355;DHT22;7777;52.254;9.618;2024-01-07T07:35:58;-0.10;99.90
15355;DHT22;7777;52.254;9.618;2024-01-07T07:38:24;-0.10;99.90
15355;DHT22;7777;52.254;9.618;2024-01-07T07:40:50;-0.10;99.90
15355;DHT22;7777;52.254;9.618;2024-01-07T07:43:19;-0.10;99.90
15355;DHT22;7777;52.254;9.618;2024-01-07T07:45:46;-0.20;99.90
15355;DHT22;7777;52.254;9.618;2024-01-07T07:48:12;-0.20;99.90
15355;DHT22;7777;52.254;9.618;2024-01-07T07:50:38;-0.20;99.90
15355;DHT22;7777;52.254;9.618;2024-01-07T07:53:05;-0.20;99.90
15355;DHT22;7777;52.254;9.618;2024-01-07T07:55:32;-0.20;99.90
15355;DHT22;7777;52.254;9.618;2024-01-07T07:57:58;-0.20;99.90
15355;DHT22;7777;52.254;9.618;2024-01-07T08:00:23;-0.20;99.90
15355;DHT22;7777;52.254;9.618;2024-01-07T08:02:49;-0.30;99.90
15355;DHT22;7777;52.254;9.618;2024-01-07T08:05:16;-0.30;99.90
15355;DHT22;7777;52.254;9.618;2024-01-07T08:07:42;-0.30;99.90
15355;DHT22;7777;52.254;9.618;2024-01-07T08:10:09;-0.30;99.90
15355;DHT22;7777;52.254;9.618;2024-01-07T08:12:35;-0.30;99.90
15355;DHT22;7777;52.254;9.618;2024-01-07T08:15:01;-0.30;99.90
15355;DHT22;7777;52.254;9.618;2024-01-07T08:17:27;-0.30;99.90
15355;DHT22;7777;52.254;9.618;2024-01-07T08:19:54;-0.30;99.90
15355;DHT22;7777;52.254;9.618;2024-01-07T08:22:19;-0.20;99.90
15355;DHT22;7777;52.254;9.618;2024-01-07T08:24:45;-0.20;99.90
15355;DHT22;7777;52.254;9.618;2024-01-07T08:27:11;-0.20;99.90
15355;DHT22;7777;52.254;9.618;2024-01-07T08:29:36;-0.20;99.90
15355;DHT22;7777;52.254;9.618;2024-01-07T08:32:03;-0.20;99.90
15355;DHT22;7777;52.254;9.618;2024-01-07T08:34:28;-0.20;99.90
15355;DHT22;7777;52.254;9.618;2024-01-07T08:36:54;-0.20;99.90
15355;DHT22;7777;52.254;9.618;2024-01-07T08:39:20;-0.20;99.90
15355;DHT22;7777;52.254;9.618;2024-01-07T08:41:45;-0.20;99.90
15355;DHT22;7777;52.254;9.618;2024-01-07T08:44:11;-0.20;99.90
15355;DHT22;7777;52.254;9.618;2024-01-07T08:46:37;-0.20;99.90
15355;DHT22;7777;52.254;9.618;2024-01-07T08:49:04;-0.10;99.90
15355;DHT22;7777;52.254;9.618;2024-01-07T08:51:30;-0.20;99.90
15355;DHT22;7777;52.254;9.618;2024-01-07T08:53:57;-0.10;99.90
15355;DHT22;7777;52.254;9.618;2024-01-07T08:56:24;-0.10;99.90
15355;DHT22;7777;52.254;9.618;2024-01-07T08:58:52;-0.10;99.90
15355;DHT22;7777;52.254;9.618;2024-01-07T09:01:18;-0.10;99.90
15355;DHT22;7777;52.254;9.618;2024-01-07T09:03:43;-0.10;99.90
15355;DHT22;7777;52.254;9.618;2024-01-07T09:06:09;-0.10;99.90
15355;DHT22;7777;52.254;9.618;2024-01-07T09:08:35;-0.10;99.90
15355;DHT22;7777;52.254;9.618;2024-01-07T09:11:04;0.00;99.90
15355;DHT22;7777;52.254;9.618;2024-01-07T09:13:31;0.00;99.90
15355;DHT22;7777;52.254;9.618;2024-01-07T09:15:57;0.00;99.90
15355;DHT22;7777;52.254;9.618;2024-01-07T09:18:23;0.00;99.90
15355;DHT22;7777;52.254;9.618;2024-01-07T09:20:49;0.00;99.90
15355;DHT22;7777;52.254;9.618;2024-01-07T09:23:15;0.00;99.90
15355;DHT22;7777;52.254;9.618;2024-01-07T09:25:41;0.00;99.90
15355;DHT22;7777;52.254;9.618;2024-01-07T09:28:07;0.00;99.90
15355;DHT22;7777;52.254;9.618;2024-01-07T09:30:33;0.00;99.90
15355;DHT22;7777;52.254;9.618;2024-01-07T09:32:59;0.00;99.90
15355;DHT22;7777;52.254;9.618;2024-01-07T09:35:26;0.10;99.90
15355;DHT22;7777;52.254;9.618;2024-01-07T09:37:52;0.10;99.90
15355;DHT22;7777;52.254;9.618;2024-01-07T09:40:18;0.10;99.90
15355;DHT22;7777;52.254;9.618;2024-01-07T09:42:44;0.10;99.90
15355;DHT22;7777;52.254;9.618;2024-01-07T09:45:13;0.10;99.90
15355;DHT22;7777;52.254;9.618;2024-01-07T09:47:40;0.10;99.90
15355;DHT22;7777;52.254;9.618;2024-01-07T09:50:10;0.10;99.90
15355;DHT22;7777;52.254;9.618;2024-01-07T09:52:38;0.10;99.90
15355;DHT22;7777;52.254;9.618;2024-01-07T09:55:07;0.10;99.90
15355;DHT22;7777;52.254;9.618;2024-01-07T09:57:34;0.20;99.90
15355;DHT22;7777;52.254;9.618;2024-01-07T10:00:02;0.20;99.90
15355;DHT22;7777;52.254;9.618;2024-01-07T10:02:30;0.20;99.90
15355;DHT22;7777;52.254;9.618;2024-01-07T10:04:55;0.20;99.90
15355;DHT22;7777;52.254;9.618;2024-01-07T10:07:21;0.20;99.90
15355;DHT22;7777;52.254;9.618;2024-01-07T10:09:47;0.20;99.90
15355;DHT22;7777;52.254;9.618;2024-01-07T10:12:12;0.20;99.90
15355;DHT22;7777;52.254;9.618;2024-01-07T10:14:38;0.20;99.90
15355;DHT22;7777;52.254;9.618;2024-01-07T10:17:16;0.30;99.90
15355;DHT22;7777;52.254;9.618;2024-01-07T10:19:45;0.20;99.90
15355;DHT22;7777;52.254;9.618;2024-01-07T10:22:12;0.30;99.90
15355;DHT22;7777;52.254;9.618;2024-01-07T10:24:40;0.30;99.90
15355;DHT22;7777;52.254;9.618;2024-01-07T10:27:07;0.30;99.90
15355;DHT22;7777;52.254;9.618;2024-01-07T10:29:35;0.30;99.90
15355;DHT22;7777;52.254;9.618;2024-01-07T10:32:01;0.40;99.90
15355;DHT22;7777;52.254;9.618;2024-01-07T10:34:31;0.40;99.90
15355;DHT22;7777;52.254;9.618;2024-01-07T10:36:59;0.40;99.90
15355;DHT22;7777;52.254;9.618;2024-01-07T10:39:26;0.40;99.90
15355;DHT22;7777;52.254;9.618;2024-01-07T10:41:55;0.40;99.90
15355;DHT22;7777;52.254;9.618;2024-01-07T10:44:28;0.40;99.90
15355;DHT22;7777;52.254;9.618;2024-01-07T10:47:00;0.40;99.90
15355;DHT22;7777;52.254;9.618;2024-01-07T10:49:31;0.40;99.90
15355;DHT22;7777;52.254;9.618;2024-01-07T10:52:04;0.40;99.90
15355;DHT22;7777;52.254;9.618;2024-01-07T10:54:35;0.50;99.90
15355;DHT22;7777;52.254;9.618;2024-01-07T10:59:53;0.50;99.90
15355;DHT22;7777;52.254;9.618;2024-01-07T11:02:21;0.50;99.90
15355;DHT22;7777;52.254;9.618;2024-01-07T11:05:03;0.50;99.90
15355;DHT22;7777;52.254;9.618;2024-01-07T11:07:43;0.50;99.90
15355;DHT22;7777;52.254;9.618;2024-01-07T11:10:24;0.50;99.90
15355;DHT22;7777;52.254;9.618;2024-01-07T11:12:57;0.50;99.90
15355;DHT22;7777;52.254;9.618;2024-01-07T11:18:20;0.50;99.90
15355;DHT22;7777;52.254;9.618;2024-01-07T11:20:46;0.60;99.90
15355;DHT22;7777;52.254;9.618;2024-01-07T11:23:32;0.60;99.90
15355;DHT22;7777;52.254;9.618;2024-01-07T11:26:02;0.60;99.90
15355;DHT22;7777;52.254;9.618;2024-01-07T11:31:19;0.60;99.90
15355;DHT22;7777;52.254;9.618;2024-01-07T11:33:47;0.60;99.90
15355;DHT22;7777;52.254;9.618;2024-01-07T11:36:15;0.60;99.90
15355;DHT22;7777;52.254;9.618;2024-01-07T11:38:47;0.70;99.90
15355;DHT22;7777;52.254;9.618;2024-01-07T11:41:14;0.70;99.90
15355;DHT22;7777;52.254;9.618;2024-01-07T11:43:56;0.70;99.90
15355;DHT22;7777;52.254;9.618;2024-01-07T11:46:25;0.70;99.90
15355;DHT22;7777;52.254;9.618;2024-01-07T11:48:55;0.70;99.90
15355;DHT22;7777;52.254;9.618;2024-01-07T11:51:29;0.70;99.90
15355;DHT22;7777;52.254;9.618;2024-01-07T11:53:59;0.70;99.90
15355;DHT22;7777;52.254;9.618;2024-01-07T11:56:26;0.70;99.90
15355;DHT22;7777;52.254;9.618;2024-01-07T11:58:54;0.70;99.90
15355;DHT22;7777;52.254;9.618;2024-01-07T12:01:22;0.70;99.90
15355;DHT22;7777;52.254;9.618;2024-01-07T12:03:48;0.80;99.90
15355;DHT22;7777;52.254;9.618;2024-01-07T12:06:15;0.80;99.90
15355;DHT22;7777;52.254;9.618;2024-01-07T12:08:41;0.80;99.90
15355;DHT22;7777;52.254;9.618;2024-01-07T12:11:08;0.80;99.90
15355;DHT22;7777;52.254;9.618;2024-01-07T12:13:36;0.80;99.90
15355;DHT22;7777;52.254;9.618;2024-01-07T12:16:04;0.80;99.90
15355;DHT22;7777;52.254;9.618;2024-01-07T12:18:31;0.80;99.90
15355;DHT22;7777;52.254;9.618;2024-01-07T12:20:59;0.80;99.90
15355;DHT22;7777;52.254;9.618;2024-01-07T12:23:26;0.80;99.90
15355;DHT22;7777;52.254;9.618;2024-01-07T12:25:55;0.90;99.90
15355;DHT22;7777;52.254;9.618;2024-01-07T12:28:32;0.90;99.90
15355;DHT22;7777;52.254;9.618;2024-01-07T12:30:58;0.90;99.90
15355;DHT22;7777;52.254;9.618;2024-01-07T12:33:25;0.90;99.90
15355;DHT22;7777;52.254;9.618;2024-01-07T12:35:51;0.90;99.90
15355;DHT22;7777;52.254;9.618;2024-01-07T12:38:26;0.90;99.90
15355;DHT22;7777;52.254;9.618;2024-01-07T12:40:56;0.90;99.90
15355;DHT22;7777;52.254;9.618;2024-01-07T12:43:22;0.90;99.90
15355;DHT22;7777;52.254;9.618;2024-01-07T12:45:48;0.90;99.90
15355;DHT22;7777;52.254;9.618;2024-01-07T12:48:14;1.00;99.90
15355;DHT22;7777;52.254;9.618;2024-01-07T12:50:40;1.00;99.90
15355;DHT22;7777;52.254;9.618;2024-01-07T12:53:06;1.00;99.90
15355;DHT22;7777;52.254;9.618;2024-01-07T12:55:32;1.00;99.90
15355;DHT22;7777;52.254;9.618;2024-01-07T12:57:58;1.00;99.90
15355;DHT22;7777;52.254;9.618;2024-01-07T13:00:25;1.00;99.90
15355;DHT22;7777;52.254;9.618;2024-01-07T13:02:52;1.00;99.90
15355;DHT22;7777;52.254;9.618;2024-01-07T13:05:17;1.00;99.90
15355;DHT22;7777;52.254;9.618;2024-01-07T13:07:44;1.00;99.90
15355;DHT22;7777;52.254;9.618;2024-01-07T13:10:11;1.00;99.90
15355;DHT22;7777;52.254;9.618;2024-01-07T13:12:37;1.00;99.90
15355;DHT22;7777;52.254;9.618;2024-01-07T13:15:05;1.00;99.90
15355;DHT22;7777;52.254;9.618;2024-01-07T13:17:31;1.00;99.90
15355;DHT22;7777;52.254;9.618;2024-01-07T13:20:01;1.00;99.90
15355;DHT22;7777;52.254;9.618;2024-01-07T13:22:32;1.00;99.90
15355;DHT22;7777;52.254;9.618;2024-01-07T13:24:57;1.00;99.90
15355;DHT22;7777;52.254;9.618;2024-01-07T13:27:24;1.10;99.90
15355;DHT22;7777;52.254;9.618;2024-01-07T13:29:49;1.10;99.90
15355;DHT22;7777;52.254;9.618;2024-01-07T13:32:16;1.10;99.90
15355;DHT22;7777;52.254;9.618;2024-01-07T13:34:45;1.10;99.90
15355;DHT22;7777;52.254;9.618;2024-01-07T13:37:11;1.10;99.90
15355;DHT22;7777;52.254;9.618;2024-01-07T13:39:37;1.10;99.90
15355;DHT22;7777;52.254;9.618;2024-01-07T13:42:03;1.10;99.90
15355;DHT22;7777;52.254;9.618;2024-01-07T13:44:30;1.20;99.90
15355;DHT22;7777;52.254;9.618;2024-01-07T13:46:56;1.10;99.90
15355;DHT22;7777;52.254;9.618;2024-01-07T13:49:21;1.20;99.90
15355;DHT22;7777;52.254;9.618;2024-01-07T13:51:47;1.20;99.90
15355;DHT22;7777;52.254;9.618;2024-01-07T13:54:13;1.20;99.90
15355;DHT22;7777;52.254;9.618;2024-01-07T13:56:41;1.20;99.90
15355;DHT22;7777;52.254;9.618;2024-01-07T13:59:08;1.20;99.90
15355;DHT22;7777;52.254;9.618;2024-01-07T14:01:34;1.20;99.90
15355;DHT22;7777;52.254;9.618;2024-01-07T14:04:00;1.20;99.90
15355;DHT22;7777;52.254;9.618;2024-01-07T14:06:25;1.20;99.90
15355;DHT22;7777;52.254;9.618;2024-01-07T14:08:51;1.20;99.90
15355;DHT22;7777;52.254;9.618;2024-01-07T14:11:20;1.20;99.90
15355;DHT22;7777;52.254;9.618;2024-01-07T14:13:46;1.20;99.90
15355;DHT22;7777;52.254;9.618;2024-01-07T14:16:13;1.20;99.90
15355;DHT22;7777;52.254;9.618;2024-01-07T14:18:39;1.20;99.90
15355;DHT22;7777;52.254;9.618;2024-01-07T14:21:06;1.20;99.90
15355;DHT22;7777;52.254;9.618;2024-01-07T14:23:32;1.20;99.90
15355;DHT22;7777;52.254;9.618;2024-01-07T14:25:59;1.20;99.90
15355;DHT22;7777;52.254;9.618;2024-01-07T14:28:26;1.20;99.90
15355;DHT22;7777;52.254;9.618;2024-01-07T14:30:53;1.20;99.90
15355;DHT22;7777;52.254;9.618;2024-01-07T14:33:18;1.20;99.90
15355;DHT22;7777;52.254;9.618;2024-01-07T14:35:44;1.20;99.90
15355;DHT22;7777;52.254;9.618;2024-01-07T14:38:09;1.20;99.90
15355;DHT22;7777;52.254;9.618;2024-01-07T14:40:35;1.20;99.90
15355;DHT22;7777;52.254;9.618;2024-01-07T14:43:01;1.20;99.90
15355;DHT22;7777;52.254;9.618;2024-01-07T14:45:27;1.20;99.90
15355;DHT22;7777;52.254;9.618;2024-01-07T14:47:53;1.20;99.90
15355;DHT22;7777;52.254;9.618;2024-01-07T14:50:21;1.20;99.90
15355;DHT22;7777;52.254;9.618;2024-01-07T14:52:47;1.20;99.90
15355;DHT22;7777;52.254;9.618;2024-01-07T14:55:13;1.20;99.90
15355;DHT22;7777;52.254;9.618;2024-01-07T14:57:40;1.20;99.90
15355;DHT22;7777;52.254;9.618;2024-01-07T15:00:06;1.20;99.90
15355;DHT22;7777;52.254;9.618;2024-01-07T15:02:33;1.20;99.90
15355;DHT22;7777;52.254;9.618;2024-01-07T15:04:59;1.20;99.90
15355;DHT22;7777;52.254;9.618;2024-01-07T15:07:25;1.10;99.90
15355;DHT22;7777;52.254;9.618;2024-01-07T15:09:51;1.10;99.90
15355;DHT22;7777;52.254;9.618;2024-01-07T15:12:17;1.10;99.90
15355;DHT22;7777;52.254;9.618;2024-01-07T15:14:44;1.10;99.90
15355;DHT22;7777;52.254;9.618;2024-01-07T15:17:10;1.10;99.90
15355;DHT22;7777;52.254;9.618;2024-01-07T15:19:35;1.10;99.90
15355;DHT22;7777;52.254;9.618;2024-01-07T15:22:01;1.10;99.90
15355;DHT22;7777;52.254;9.618;2024-01-07T15:24:29;1.10;99.90
15355;DHT22;7777;52.254;9.618;2024-01-07T15:26:55;1.00;99.90
15355;DHT22;7777;52.254;9.618;2024-01-07T15:29:22;1.10;99.90
15355;DHT22;7777;52.254;9.618;2024-01-07T15:31:48;1.00;99.90
15355;DHT22;7777;52.254;9.618;2024-01-07T15:34:13;1.00;99.90
15355;DHT22;7777;52.254;9.618;2024-01-07T15:36:39;1.00;99.90
15355;DHT22;7777;52.254;9.618;2024-01-07T15:39:05;1.00;99.90
15355;DHT22;7777;52.254;9.618;2024-01-07T15:41:31;1.00;99.90
15355;DHT22;7777;52.254;9.618;2024-01-07T15:43:58;0.90;99.90
15355;DHT22;7777;52.254;9.618;2024-01-07T15:46:24;1.00;99.90
15355;DHT22;7777;52.254;9.618;2024-01-07T15:48:49;0.90;99.90
15355;DHT22;7777;52.254;9.618;2024-01-07T15:51:16;0.90;99.90
15355;DHT22;7777;52.254;9.618;2024-01-07T15:53:42;0.90;99.90
15355;DHT22;7777;52.254;9.618;2024-01-07T15:56:08;0.90;99.90
15355;DHT22;7777;52.254;9.618;2024-01-07T15:58:34;0.90;99.90
15355;DHT22;7777;52.254;9.618;2024-01-07T16:01:01;0.90;99.90
15355;DHT22;7777;52.254;9.618;2024-01-07T16:03:32;0.80;99.90
15355;DHT22;7777;52.254;9.618;2024-01-07T16:05:58;0.80;99.90